sensor_id;sensor_type;location;lat;lon;timestamp;P1;durP1;ratioP1;P2;durP2;ratioP2
70008;SDS011;59542;37.950;-122.338;2023-04-24T00:01:05;2.58;;;1.17;;
70008;SDS011;59542;37.950;-122.338;2023-04-24T00:03:32;7.97;;;4.65;;
70008;SDS011;59542;37.950;-122.338;2023-04-24T00:05:58;2.70;;;1.08;;
70008;SDS011;59542;37.950;-122.338;2023-04-24T00:08:26;2.95;;;0.88;;
70008;SDS011;59542;37.950;-122.338;2023-04-24T00:10:52;0.88;;;0.60;;
70008;SDS011;59542;37.950;-122.338;2023-04-24T00:13:18;4.22;;;1.35;;
70008;SDS011;59542;37.950;-122.338;2023-04-24T00:15:44;3.15;;;1.10;;
70008;SDS011;59542;37.950;-122.338;2023-04-24T00:18:11;1.85;;;1.08;;
70008;SDS011;59542;37.950;-122.338;2023-04-24T00:20:37;2.90;;;0.70;;
70008;SDS011;59542;37.950;-122.338;2023-04-24T00:23:04;4.70;;;0.80;;
70008;SDS011;59542;37.950;-122.338;2023-04-24T00:25:31;2.80;;;1.42;;
70008;SDS011;59542;37.950;-122.338;2023-04-24T00:27:57;3.13;;;1.05;;
70008;SDS011;59542;37.950;-122.338;2023-04-24T00:30:23;2.70;;;0.80;;
70008;SDS011;59542;37.950;-122.338;2023-04-24T00:32:49;3.00;;;0.80;;
70008;SDS011;59542;37.950;-122.338;2023-04-24T00:35:16;4.05;;;0.80;;
70008;SDS011;59542;37.950;-122.338;2023-04-24T00:37:42;1.88;;;0.80;;
70008;SDS011;59542;37.950;-122.338;2023-04-24T00:40:08;1.23;;;0.52;;
70008;SDS011;59542;37.950;-122.338;2023-04-24T00:42:35;2.15;;;0.65;;
70008;SDS011;59542;37.950;-122.338;2023-04-24T00:45:01;1.95;;;0.70;;
70008;SDS011;59542;37.950;-122.338;2023-04-24T00:47:28;2.28;;;1.05;;
70008;SDS011;59542;37.950;-122.338;2023-04-24T00:49:55;2.83;;;0.85;;
70008;SDS011;59542;37.950;-122.338;2023-04-24T00:52:21;2.97;;;0.98;;
70008;SDS011;59542;37.950;-122.338;2023-04-24T00:54:49;2.72;;;0.88;;
70008;SDS011;59542;37.950;-122.338;2023-04-24T00:57:15;2.67;;;1.00;;
70008;SDS011;59542;37.950;-122.338;2023-04-24T00:59:42;4.72;;;1.20;;
70008;SDS011;59542;37.950;-122.338;2023-04-24T01:02:09;5.07;;;1.23;;
70008;SDS011;59542;37.950;-122.338;2023-04-24T01:04:36;4.25;;;1.20;;
70008;SDS011;59542;37.950;-122.338;2023-04-24T01:07:03;2.58;;;0.80;;
70008;SDS011;59542;37.950;-122.338;2023-04-24T01:09:36;2.67;;;0.90;;
70008;SDS011;59542;37.950;-122.338;2023-04-24T01:12:06;4.18;;;1.33;;
70008;SDS011;59542;37.950;-122.338;2023-04-24T01:14:33;4.47;;;1.08;;
70008;SDS011;59542;37.950;-122.338;2023-04-24T01:16:59;4.80;;;1.10;;
70008;SDS011;59542;37.950;-122.338;2023-04-24T01:19:25;5.00;;;1.42;;
70008;SDS011;59542;37.950;-122.338;2023-04-24T01:21:52;2.72;;;0.90;;
70008;SDS011;59542;37.950;-122.338;2023-04-24T01:24:19;1.90;;;0.85;;
70008;SDS011;59542;37.950;-122.338;2023-04-24T01:26:46;3.63;;;1.27;;
70008;SDS011;59542;37.950;-122.338;2023-04-24T01:29:12;4.93;;;0.90;;
70008;SDS011;59542;37.950;-122.338;2023-04-24T01:31:39;5.20;;;1.20;;
70008;SDS011;59542;37.950;-122.338;2023-04-24T01:34:05;7.30;;;2.00;;
70008;SDS011;59542;37.950;-122.338;2023-04-24T01:36:33;14.13;;;2.90;;
70008;SDS011;59542;37.950;-122.338;2023-04-24T01:39:01;10.00;;;3.50;;
70008;SDS011;59542;37.950;-122.338;2023-04-24T01:41:29;8.88;;;3.10;;
70008;SDS011;59542;37.950;-122.338;2023-04-24T01:43:56;10.00;;;2.80;;
70008;SDS011;59542;37.950;-122.338;2023-04-24T01:46:23;8.35;;;2.90;;
70008;SDS011;59542;37.950;-122.338;2023-04-24T01:48:50;8.65;;;2.47;;
70008;SDS011;59542;37.950;-122.338;2023-04-24T01:51:17;9.57;;;2.90;;
70008;SDS011;59542;37.950;-122.338;2023-04-24T01:53:43;10.25;;;3.00;;
70008;SDS011;59542;37.950;-122.338;2023-04-24T01:56:10;12.05;;;3.25;;
70008;SDS011;59542;37.950;-122.338;2023-04-24T01:58:37;13.05;;;4.00;;
70008;SDS011;59542;37.950;-122.338;2023-04-24T02:01:03;13.23;;;3.35;;
70008;SDS011;59542;37.950;-122.338;2023-04-24T02:03:29;8.80;;;3.13;;
70008;SDS011;59542;37.950;-122.338;2023-04-24T02:05:55;11.73;;;2.88;;
70008;SDS011;59542;37.950;-122.338;2023-04-24T02:08:22;11.77;;;3.00;;
70008;SDS011;59542;37.950;-122.338;2023-04-24T02:10:48;9.38;;;2.75;;
70008;SDS011;59542;37.950;-122.338;2023-04-24T02:13:14;10.13;;;3.47;;
70008;SDS011;59542;37.950;-122.338;2023-04-24T02:15:40;14.90;;;4.07;;
70008;SDS011;59542;37.950;-122.338;2023-04-24T02:18:06;8.93;;;3.00;;
70008;SDS011;59542;37.950;-122.338;2023-04-24T02:20:33;10.45;;;3.35;;
70008;SDS011;59542;37.950;-122.338;2023-04-24T02:23:00;17.95;;;4.05;;
70008;SDS011;59542;37.950;-122.338;2023-04-24T02:25:27;14.05;;;3.60;;
70008;SDS011;59542;37.950;-122.338;2023-04-24T02:27:53;14.57;;;3.72;;
70008;SDS011;59542;37.950;-122.338;2023-04-24T02:30:19;11.68;;;3.70;;
70008;SDS011;59542;37.950;-122.338;2023-04-24T02:32:46;11.43;;;3.45;;
70008;SDS011;59542;37.950;-122.338;2023-04-24T02:35:12;7.50;;;3.35;;
70008;SDS011;59542;37.950;-122.338;2023-04-24T02:37:38;14.10;;;3.85;;
70008;SDS011;59542;37.950;-122.338;2023-04-24T02:40:04;13.63;;;3.53;;
70008;SDS011;59542;37.950;-122.338;2023-04-24T02:42:31;13.93;;;3.90;;
70008;SDS011;59542;37.950;-122.338;2023-04-24T02:44:58;14.30;;;4.45;;
70008;SDS011;59542;37.950;-122.338;2023-04-24T02:47:24;16.33;;;4.25;;
70008;SDS011;59542;37.950;-122.338;2023-04-24T02:49:50;14.38;;;4.22;;
70008;SDS011;59542;37.950;-122.338;2023-04-24T02:52:16;17.80;;;3.90;;
70008;SDS011;59542;37.950;-122.338;2023-04-24T02:54:43;18.45;;;4.30;;
70008;SDS011;59542;37.950;-122.338;2023-04-24T02:57:09;17.48;;;4.40;;
70008;SDS011;59542;37.950;-122.338;2023-04-24T02:59:35;15.50;;;4.43;;
70008;SDS011;59542;37.950;-122.338;2023-04-24T03:02:01;13.32;;;3.63;;
70008;SDS011;59542;37.950;-122.338;2023-04-24T03:04:27;17.15;;;3.90;;
70008;SDS011;59542;37.950;-122.338;2023-04-24T03:06:54;18.38;;;4.20;;
70008;SDS011;59542;37.950;-122.338;2023-04-24T03:09:20;15.55;;;4.32;;
70008;SDS011;59542;37.950;-122.338;2023-04-24T03:11:47;13.02;;;4.47;;
70008;SDS011;59542;37.950;-122.338;2023-04-24T03:14:14;19.20;;;4.65;;
70008;SDS011;59542;37.950;-122.338;2023-04-24T03:16:41;19.23;;;4.10;;
70008;SDS011;59542;37.950;-122.338;2023-04-24T03:19:07;10.82;;;3.50;;
70008;SDS011;59542;37.950;-122.338;2023-04-24T03:21:33;11.88;;;4.00;;
70008;SDS011;59542;37.950;-122.338;2023-04-24T03:24:01;15.23;;;3.97;;
70008;SDS011;59542;37.950;-122.338;2023-04-24T03:26:27;13.73;;;4.32;;
70008;SDS011;59542;37.950;-122.338;2023-04-24T03:28:53;15.30;;;4.13;;
70008;SDS011;59542;37.950;-122.338;2023-04-24T03:31:19;17.67;;;3.90;;
70008;SDS011;59542;37.950;-122.338;2023-04-24T03:33:46;14.43;;;4.00;;
70008;SDS011;59542;37.950;-122.338;2023-04-24T03:36:12;22.58;;;4.03;;
70008;SDS011;59542;37.950;-122.338;2023-04-24T03:38:38;14.88;;;3.42;;
70008;SDS011;59542;37.950;-122.338;2023-04-24T03:41:05;17.05;;;4.05;;
70008;SDS011;59542;37.950;-122.338;2023-04-24T03:43:31;13.32;;;3.70;;
70008;SDS011;59542;37.950;-122.338;2023-04-24T03:46:00;12.90;;;3.97;;
70008;SDS011;59542;37.950;-122.338;2023-04-24T03:48:26;15.77;;;4.22;;
70008;SDS011;59542;37.950;-122.338;2023-04-24T03:50:52;17.88;;;4.22;;
70008;SDS011;59542;37.950;-122.338;2023-04-24T03:53:18;19.13;;;4.00;;
70008;SDS011;59542;37.950;-122.338;2023-04-24T03:55:45;13.05;;;4.32;;
70008;SDS011;59542;37.950;-122.338;2023-04-24T03:58:11;14.80;;;4.35;;
70008;SDS011;59542;37.950;-122.338;2023-04-24T04:00:39;20.33;;;4.45;;
70008;SDS011;59542;37.950;-122.338;2023-04-24T04:03:06;17.30;;;5.55;;
70008;SDS011;59542;37.950;-122.338;2023-04-24T04:05:32;16.40;;;3.88;;
70008;SDS011;59542;37.950;-122.338;2023-04-24T04:07:58;21.98;;;4.50;;
70008;SDS011;59542;37.950;-122.338;2023-04-24T04:10:25;16.88;;;4.35;;
70008;SDS011;59542;37.950;-122.338;2023-04-24T04:12:51;20.73;;;4.13;;
70008;SDS011;59542;37.950;-122.338;2023-04-24T04:15:17;20.20;;;4.75;;
70008;SDS011;59542;37.950;-122.338;2023-04-24T04:17:44;16.02;;;4.28;;
70008;SDS011;59542;37.950;-122.338;2023-04-24T04:20:11;18.20;;;4.85;;
70008;SDS011;59542;37.950;-122.338;2023-04-24T04:22:37;21.52;;;4.93;;
70008;SDS011;59542;37.950;-122.338;2023-04-24T04:25:04;22.00;;;4.65;;
70008;SDS011;59542;37.950;-122.338;2023-04-24T04:27:30;19.35;;;5.28;;
70008;SDS011;59542;37.950;-122.338;2023-04-24T04:30:00;12.60;;;4.72;;
70008;SDS011;59542;37.950;-122.338;2023-04-24T04:32:33;24.17;;;4.85;;
70008;SDS011;59542;37.950;-122.338;2023-04-24T04:35:02;18.42;;;4.50;;
70008;SDS011;59542;37.950;-122.338;2023-04-24T04:37:29;19.15;;;5.00;;
70008;SDS011;59542;37.950;-122.338;2023-04-24T04:39:57;15.27;;;4.75;;
70008;SDS011;59542;37.950;-122.338;2023-04-24T04:42:24;19.80;;;5.07;;
70008;SDS011;59542;37.950;-122.338;2023-04-24T04:44:52;16.65;;;4.28;;
70008;SDS011;59542;37.950;-122.338;2023-04-24T04:47:19;16.70;;;4.05;;
70008;SDS011;59542;37.950;-122.338;2023-04-24T04:49:50;14.77;;;4.50;;
70008;SDS011;59542;37.950;-122.338;2023-04-24T04:52:19;18.67;;;4.93;;
70008;SDS011;59542;37.950;-122.338;2023-04-24T04:54:45;17.92;;;4.85;;
70008;SDS011;59542;37.950;-122.338;2023-04-24T04:57:11;19.90;;;5.00;;
70008;SDS011;59542;37.950;-122.338;2023-04-24T04:59:38;18.88;;;4.63;;
70008;SDS011;59542;37.950;-122.338;2023-04-24T05:02:06;13.77;;;4.07;;
70008;SDS011;59542;37.950;-122.338;2023-04-24T05:04:32;17.00;;;4.70;;
70008;SDS011;59542;37.950;-122.338;2023-04-24T05:06:58;17.75;;;4.97;;
70008;SDS011;59542;37.950;-122.338;2023-04-24T05:09:25;20.63;;;4.70;;
70008;SDS011;59542;37.950;-122.338;2023-04-24T05:11:52;17.08;;;4.88;;
70008;SDS011;59542;37.950;-122.338;2023-04-24T05:14:19;16.75;;;6.25;;
70008;SDS011;59542;37.950;-122.338;2023-04-24T05:16:46;20.00;;;4.60;;
70008;SDS011;59542;37.950;-122.338;2023-04-24T05:19:12;16.88;;;4.35;;
70008;SDS011;59542;37.950;-122.338;2023-04-24T05:21:39;22.98;;;4.80;;
70008;SDS011;59542;37.950;-122.338;2023-04-24T05:24:06;19.02;;;4.90;;
70008;SDS011;59542;37.950;-122.338;2023-04-24T05:26:33;21.98;;;4.55;;
70008;SDS011;59542;37.950;-122.338;2023-04-24T05:28:59;17.98;;;4.95;;
70008;SDS011;59542;37.950;-122.338;2023-04-24T05:31:25;20.95;;;5.07;;
70008;SDS011;59542;37.950;-122.338;2023-04-24T05:33:51;32.35;;;6.22;;
70008;SDS011;59542;37.950;-122.338;2023-04-24T05:36:17;17.85;;;4.53;;
70008;SDS011;59542;37.950;-122.338;2023-04-24T05:38:44;20.80;;;5.20;;
70008;SDS011;59542;37.950;-122.338;2023-04-24T05:41:10;18.63;;;5.00;;
70008;SDS011;59542;37.950;-122.338;2023-04-24T05:43:36;26.27;;;5.20;;
70008;SDS011;59542;37.950;-122.338;2023-04-24T05:46:02;25.60;;;5.72;;
70008;SDS011;59542;37.950;-122.338;2023-04-24T05:48:29;27.15;;;6.10;;
70008;SDS011;59542;37.950;-122.338;2023-04-24T05:50:56;17.83;;;4.78;;
70008;SDS011;59542;37.950;-122.338;2023-04-24T05:53:22;22.17;;;5.28;;
70008;SDS011;59542;37.950;-122.338;2023-04-24T05:55:48;24.73;;;5.47;;
70008;SDS011;59542;37.950;-122.338;2023-04-24T05:58:14;23.42;;;5.72;;
70008;SDS011;59542;37.950;-122.338;2023-04-24T06:00:41;28.83;;;6.30;;
70008;SDS011;59542;37.950;-122.338;2023-04-24T06:03:09;30.90;;;5.85;;
70008;SDS011;59542;37.950;-122.338;2023-04-24T06:05:36;17.67;;;4.70;;
70008;SDS011;59542;37.950;-122.338;2023-04-24T06:08:02;21.70;;;5.97;;
70008;SDS011;59542;37.950;-122.338;2023-04-24T06:10:28;37.97;;;6.53;;
70008;SDS011;59542;37.950;-122.338;2023-04-24T06:12:54;18.83;;;5.25;;
70008;SDS011;59542;37.950;-122.338;2023-04-24T06:15:27;22.92;;;5.60;;
70008;SDS011;59542;37.950;-122.338;2023-04-24T06:17:54;24.17;;;6.43;;
70008;SDS011;59542;37.950;-122.338;2023-04-24T06:20:20;24.35;;;6.25;;
70008;SDS011;59542;37.950;-122.338;2023-04-24T06:22:46;23.50;;;7.18;;
70008;SDS011;59542;37.950;-122.338;2023-04-24T06:25:13;27.33;;;6.30;;
70008;SDS011;59542;37.950;-122.338;2023-04-24T06:27:39;26.75;;;6.38;;
70008;SDS011;59542;37.950;-122.338;2023-04-24T06:30:05;25.52;;;6.78;;
70008;SDS011;59542;37.950;-122.338;2023-04-24T06:32:32;22.70;;;5.95;;
70008;SDS011;59542;37.950;-122.338;2023-04-24T06:34:58;21.02;;;6.05;;
70008;SDS011;59542;37.950;-122.338;2023-04-24T06:37:25;20.50;;;6.03;;
70008;SDS011;59542;37.950;-122.338;2023-04-24T06:39:51;34.72;;;6.85;;
70008;SDS011;59542;37.950;-122.338;2023-04-24T06:42:17;27.77;;;7.20;;
70008;SDS011;59542;37.950;-122.338;2023-04-24T06:44:46;29.52;;;6.72;;
70008;SDS011;59542;37.950;-122.338;2023-04-24T06:47:12;25.90;;;6.45;;
70008;SDS011;59542;37.950;-122.338;2023-04-24T06:49:41;29.48;;;7.05;;
70008;SDS011;59542;37.950;-122.338;2023-04-24T06:52:08;28.15;;;6.35;;
70008;SDS011;59542;37.950;-122.338;2023-04-24T06:54:34;26.58;;;6.43;;
70008;SDS011;59542;37.950;-122.338;2023-04-24T06:57:00;17.05;;;6.05;;
70008;SDS011;59542;37.950;-122.338;2023-04-24T06:59:28;25.13;;;6.55;;
70008;SDS011;59542;37.950;-122.338;2023-04-24T07:01:55;19.25;;;6.28;;
70008;SDS011;59542;37.950;-122.338;2023-04-24T07:04:22;27.75;;;6.38;;
70008;SDS011;59542;37.950;-122.338;2023-04-24T07:06:50;22.98;;;6.50;;
70008;SDS011;59542;37.950;-122.338;2023-04-24T07:09:16;24.63;;;6.90;;
70008;SDS011;59542;37.950;-122.338;2023-04-24T07:11:44;18.15;;;5.72;;
70008;SDS011;59542;37.950;-122.338;2023-04-24T07:14:11;23.63;;;5.47;;
70008;SDS011;59542;37.950;-122.338;2023-04-24T07:16:37;28.08;;;6.22;;
70008;SDS011;59542;37.950;-122.338;2023-04-24T07:19:04;22.27;;;6.07;;
70008;SDS011;59542;37.950;-122.338;2023-04-24T07:21:33;22.75;;;6.18;;
70008;SDS011;59542;37.950;-122.338;2023-04-24T07:23:59;28.55;;;6.78;;
70008;SDS011;59542;37.950;-122.338;2023-04-24T07:26:28;24.17;;;5.65;;
70008;SDS011;59542;37.950;-122.338;2023-04-24T07:28:55;25.55;;;5.85;;
70008;SDS011;59542;37.950;-122.338;2023-04-24T07:31:21;21.75;;;6.05;;
70008;SDS011;59542;37.950;-122.338;2023-04-24T07:33:48;26.27;;;6.18;;
70008;SDS011;59542;37.950;-122.338;2023-04-24T07:36:15;22.13;;;5.38;;
70008;SDS011;59542;37.950;-122.338;2023-04-24T07:38:44;26.35;;;5.95;;
70008;SDS011;59542;37.950;-122.338;2023-04-24T07:41:12;25.58;;;5.85;;
70008;SDS011;59542;37.950;-122.338;2023-04-24T07:43:39;19.27;;;6.07;;
70008;SDS011;59542;37.950;-122.338;2023-04-24T07:46:06;24.58;;;6.30;;
70008;SDS011;59542;37.950;-122.338;2023-04-24T07:48:33;26.40;;;5.65;;
70008;SDS011;59542;37.950;-122.338;2023-04-24T07:51:01;28.75;;;7.72;;
70008;SDS011;59542;37.950;-122.338;2023-04-24T07:53:27;32.70;;;7.22;;
70008;SDS011;59542;37.950;-122.338;2023-04-24T07:55:54;27.65;;;6.50;;
70008;SDS011;59542;37.950;-122.338;2023-04-24T07:58:21;31.65;;;7.32;;
70008;SDS011;59542;37.950;-122.338;2023-04-24T08:00:47;19.83;;;5.65;;
70008;SDS011;59542;37.950;-122.338;2023-04-24T08:03:14;24.65;;;6.50;;
70008;SDS011;59542;37.950;-122.338;2023-04-24T08:05:43;24.58;;;5.90;;
70008;SDS011;59542;37.950;-122.338;2023-04-24T08:08:09;19.83;;;5.47;;
70008;SDS011;59542;37.950;-122.338;2023-04-24T08:10:36;25.90;;;6.28;;
70008;SDS011;59542;37.950;-122.338;2023-04-24T08:13:02;30.55;;;6.68;;
70008;SDS011;59542;37.950;-122.338;2023-04-24T08:15:28;20.95;;;6.60;;
70008;SDS011;59542;37.950;-122.338;2023-04-24T08:17:55;21.63;;;6.85;;
70008;SDS011;59542;37.950;-122.338;2023-04-24T08:20:22;21.58;;;6.22;;
70008;SDS011;59542;37.950;-122.338;2023-04-24T08:22:48;22.17;;;6.18;;
70008;SDS011;59542;37.950;-122.338;2023-04-24T08:25:15;25.10;;;6.90;;
70008;SDS011;59542;37.950;-122.338;2023-04-24T08:27:42;30.05;;;6.63;;
70008;SDS011;59542;37.950;-122.338;2023-04-24T08:30:09;28.92;;;7.20;;
70008;SDS011;59542;37.950;-122.338;2023-04-24T08:32:35;23.55;;;7.13;;
70008;SDS011;59542;37.950;-122.338;2023-04-24T08:35:02;30.17;;;6.47;;
70008;SDS011;59542;37.950;-122.338;2023-04-24T08:37:29;30.70;;;6.03;;
70008;SDS011;59542;37.950;-122.338;2023-04-24T08:39:55;30.42;;;8.32;;
70008;SDS011;59542;37.950;-122.338;2023-04-24T08:42:22;24.08;;;6.07;;
70008;SDS011;59542;37.950;-122.338;2023-04-24T08:44:50;27.92;;;7.63;;
70008;SDS011;59542;37.950;-122.338;2023-04-24T08:47:16;28.58;;;6.38;;
70008;SDS011;59542;37.950;-122.338;2023-04-24T08:49:44;29.02;;;7.15;;
70008;SDS011;59542;37.950;-122.338;2023-04-24T08:52:13;29.40;;;6.50;;
70008;SDS011;59542;37.950;-122.338;2023-04-24T08:54:41;20.80;;;6.72;;
70008;SDS011;59542;37.950;-122.338;2023-04-24T08:57:10;26.05;;;5.95;;
70008;SDS011;59542;37.950;-122.338;2023-04-24T08:59:39;23.90;;;6.68;;
70008;SDS011;59542;37.950;-122.338;2023-04-24T09:02:10;24.67;;;6.82;;
70008;SDS011;59542;37.950;-122.338;2023-04-24T09:04:37;37.05;;;7.07;;
70008;SDS011;59542;37.950;-122.338;2023-04-24T09:07:04;28.10;;;6.97;;
70008;SDS011;59542;37.950;-122.338;2023-04-24T09:09:32;30.27;;;7.05;;
70008;SDS011;59542;37.950;-122.338;2023-04-24T09:12:00;26.45;;;7.00;;
70008;SDS011;59542;37.950;-122.338;2023-04-24T09:14:27;23.25;;;6.60;;
70008;SDS011;59542;37.950;-122.338;2023-04-24T09:16:56;27.50;;;6.18;;
70008;SDS011;59542;37.950;-122.338;2023-04-24T09:19:22;21.10;;;6.28;;
70008;SDS011;59542;37.950;-122.338;2023-04-24T09:21:49;26.25;;;7.05;;
70008;SDS011;59542;37.950;-122.338;2023-04-24T09:24:19;27.13;;;6.70;;
70008;SDS011;59542;37.950;-122.338;2023-04-24T09:26:48;39.72;;;6.82;;
70008;SDS011;59542;37.950;-122.338;2023-04-24T09:29:22;31.52;;;7.35;;
70008;SDS011;59542;37.950;-122.338;2023-04-24T09:31:48;37.08;;;7.72;;
70008;SDS011;59542;37.950;-122.338;2023-04-24T09:34:18;27.73;;;7.78;;
70008;SDS011;59542;37.950;-122.338;2023-04-24T09:36:50;32.45;;;7.53;;
70008;SDS011;59542;37.950;-122.338;2023-04-24T09:39:17;20.55;;;6.32;;
70008;SDS011;59542;37.950;-122.338;2023-04-24T09:41:48;30.15;;;7.60;;
70008;SDS011;59542;37.950;-122.338;2023-04-24T09:44:17;29.95;;;6.68;;
70008;SDS011;59542;37.950;-122.338;2023-04-24T09:46:51;28.48;;;6.88;;
70008;SDS011;59542;37.950;-122.338;2023-04-24T09:49:23;22.63;;;6.22;;
70008;SDS011;59542;37.950;-122.338;2023-04-24T09:51:51;24.25;;;6.78;;
70008;SDS011;59542;37.950;-122.338;2023-04-24T09:54:20;29.30;;;6.82;;
70008;SDS011;59542;37.950;-122.338;2023-04-24T09:56:50;19.42;;;6.10;;
70008;SDS011;59542;37.950;-122.338;2023-04-24T09:59:17;25.35;;;6.57;;
70008;SDS011;59542;37.950;-122.338;2023-04-24T10:01:45;33.67;;;7.25;;
70008;SDS011;59542;37.950;-122.338;2023-04-24T10:04:20;32.97;;;7.13;;
70008;SDS011;59542;37.950;-122.338;2023-04-24T10:06:49;34.53;;;7.00;;
70008;SDS011;59542;37.950;-122.338;2023-04-24T10:09:16;32.33;;;6.45;;
70008;SDS011;59542;37.950;-122.338;2023-04-24T10:11:45;30.05;;;7.25;;
70008;SDS011;59542;37.950;-122.338;2023-04-24T10:14:16;29.88;;;7.47;;
70008;SDS011;59542;37.950;-122.338;2023-04-24T10:16:44;33.22;;;7.47;;
70008;SDS011;59542;37.950;-122.338;2023-04-24T10:19:14;34.90;;;7.32;;
70008;SDS011;59542;37.950;-122.338;2023-04-24T10:21:41;29.73;;;6.75;;
70008;SDS011;59542;37.950;-122.338;2023-04-24T10:24:18;30.23;;;7.15;;
70008;SDS011;59542;37.950;-122.338;2023-04-24T10:26:47;31.75;;;8.15;;
70008;SDS011;59542;37.950;-122.338;2023-04-24T10:29:14;34.05;;;8.45;;
70008;SDS011;59542;37.950;-122.338;2023-04-24T10:31:42;30.30;;;7.47;;
70008;SDS011;59542;37.950;-122.338;2023-04-24T10:34:13;36.28;;;7.85;;
70008;SDS011;59542;37.950;-122.338;2023-04-24T10:36:43;35.53;;;8.30;;
70008;SDS011;59542;37.950;-122.338;2023-04-24T10:39:16;41.40;;;8.18;;
70008;SDS011;59542;37.950;-122.338;2023-04-24T10:41:44;30.50;;;7.20;;
70008;SDS011;59542;37.950;-122.338;2023-04-24T10:44:12;35.92;;;9.00;;
70008;SDS011;59542;37.950;-122.338;2023-04-24T10:46:46;28.88;;;7.38;;
70008;SDS011;59542;37.950;-122.338;2023-04-24T10:49:27;39.65;;;8.25;;
70008;SDS011;59542;37.950;-122.338;2023-04-24T10:51:59;25.50;;;7.22;;
70008;SDS011;59542;37.950;-122.338;2023-04-24T10:59:48;32.25;;;8.10;;
70008;SDS011;59542;37.950;-122.338;2023-04-24T11:02:17;26.00;;;6.90;;
70008;SDS011;59542;37.950;-122.338;2023-04-24T11:04:44;25.83;;;7.20;;
70008;SDS011;59542;37.950;-122.338;2023-04-24T11:07:11;30.30;;;7.57;;
70008;SDS011;59542;37.950;-122.338;2023-04-24T11:09:38;26.75;;;6.35;;
70008;SDS011;59542;37.950;-122.338;2023-04-24T11:12:09;28.98;;;7.07;;
70008;SDS011;59542;37.950;-122.338;2023-04-24T11:17:34;34.77;;;7.93;;
70008;SDS011;59542;37.950;-122.338;2023-04-24T11:20:06;30.23;;;8.07;;
70008;SDS011;59542;37.950;-122.338;2023-04-24T11:22:38;23.40;;;6.97;;
70008;SDS011;59542;37.950;-122.338;2023-04-24T11:25:08;25.75;;;6.90;;
70008;SDS011;59542;37.950;-122.338;2023-04-24T11:30:09;26.67;;;6.60;;
70008;SDS011;59542;37.950;-122.338;2023-04-24T11:32:37;34.78;;;8.63;;
70008;SDS011;59542;37.950;-122.338;2023-04-24T11:35:13;28.90;;;7.40;;
70008;SDS011;59542;37.950;-122.338;2023-04-24T11:37:44;23.73;;;7.30;;
70008;SDS011;59542;37.950;-122.338;2023-04-24T11:40:14;29.73;;;7.35;;
70008;SDS011;59542;37.950;-122.338;2023-04-24T11:42:42;33.00;;;7.70;;
70008;SDS011;59542;37.950;-122.338;2023-04-24T11:45:11;24.45;;;7.50;;
70008;SDS011;59542;37.950;-122.338;2023-04-24T11:47:39;29.73;;;7.55;;
70008;SDS011;59542;37.950;-122.338;2023-04-24T11:50:07;25.05;;;7.72;;
70008;SDS011;59542;37.950;-122.338;2023-04-24T11:52:37;32.88;;;8.48;;
70008;SDS011;59542;37.950;-122.338;2023-04-24T11:55:27;33.38;;;6.88;;
70008;SDS011;59542;37.950;-122.338;2023-04-24T11:57:53;28.80;;;8.68;;
70008;SDS011;59542;37.950;-122.338;2023-04-24T12:03:03;29.20;;;8.25;;
70008;SDS011;59542;37.950;-122.338;2023-04-24T12:05:31;25.20;;;7.53;;
70008;SDS011;59542;37.950;-122.338;2023-04-24T12:07:57;28.08;;;7.50;;
70008;SDS011;59542;37.950;-122.338;2023-04-24T12:10:25;34.67;;;7.70;;
70008;SDS011;59542;37.950;-122.338;2023-04-24T12:12:53;28.92;;;7.55;;
70008;SDS011;59542;37.950;-122.338;2023-04-24T12:15:21;38.90;;;8.93;;
70008;SDS011;59542;37.950;-122.338;2023-04-24T12:17:49;32.33;;;7.80;;
70008;SDS011;59542;37.950;-122.338;2023-04-24T12:20:17;28.70;;;8.20;;
70008;SDS011;59542;37.950;-122.338;2023-04-24T12:22:52;25.77;;;8.25;;
70008;SDS011;59542;37.950;-122.338;2023-04-24T12:25:24;30.63;;;8.48;;
70008;SDS011;59542;37.950;-122.338;2023-04-24T12:27:55;33.20;;;7.80;;
70008;SDS011;59542;37.950;-122.338;2023-04-24T12:30:41;44.88;;;9.77;;
70008;SDS011;59542;37.950;-122.338;2023-04-24T12:33:19;31.98;;;8.23;;
70008;SDS011;59542;37.950;-122.338;2023-04-24T12:35:46;32.55;;;8.88;;
70008;SDS011;59542;37.950;-122.338;2023-04-24T12:38:13;26.60;;;7.65;;
70008;SDS011;59542;37.950;-122.338;2023-04-24T12:40:41;26.95;;;7.82;;
70008;SDS011;59542;37.950;-122.338;2023-04-24T12:43:16;26.83;;;7.60;;
70008;SDS011;59542;37.950;-122.338;2023-04-24T12:45:48;31.90;;;7.70;;
70008;SDS011;59542;37.950;-122.338;2023-04-24T12:48:14;27.35;;;7.80;;
70008;SDS011;59542;37.950;-122.338;2023-04-24T12:50:41;30.02;;;7.32;;
70008;SDS011;59542;37.950;-122.338;2023-04-24T12:53:08;27.27;;;7.00;;
70008;SDS011;59542;37.950;-122.338;2023-04-24T12:55:35;34.65;;;8.15;;
70008;SDS011;59542;37.950;-122.338;2023-04-24T12:58:02;27.55;;;8.10;;
70008;SDS011;59542;37.950;-122.338;2023-04-24T13:00:28;26.52;;;7.50;;
70008;SDS011;59542;37.950;-122.338;2023-04-24T13:02:55;27.52;;;8.13;;
70008;SDS011;59542;37.950;-122.338;2023-04-24T13:05:21;22.08;;;7.55;;
70008;SDS011;59542;37.950;-122.338;2023-04-24T13:07:48;25.02;;;7.68;;
70008;SDS011;59542;37.950;-122.338;2023-04-24T13:10:14;34.05;;;8.30;;
70008;SDS011;59542;37.950;-122.338;2023-04-24T13:12:40;23.75;;;7.32;;
70008;SDS011;59542;37.950;-122.338;2023-04-24T13:15:10;31.65;;;7.80;;
70008;SDS011;59542;37.950;-122.338;2023-04-24T13:17:37;24.67;;;7.88;;
70008;SDS011;59542;37.950;-122.338;2023-04-24T13:20:03;20.52;;;6.80;;
70008;SDS011;59542;37.950;-122.338;2023-04-24T13:22:29;29.10;;;8.13;;
70008;SDS011;59542;37.950;-122.338;2023-04-24T13:24:56;25.77;;;7.40;;
70008;SDS011;59542;37.950;-122.338;2023-04-24T13:27:22;28.77;;;7.70;;
70008;SDS011;59542;37.950;-122.338;2023-04-24T13:29:48;22.08;;;7.88;;
70008;SDS011;59542;37.950;-122.338;2023-04-24T13:32:15;23.50;;;7.30;;
70008;SDS011;59542;37.950;-122.338;2023-04-24T13:34:41;29.08;;;7.28;;
70008;SDS011;59542;37.950;-122.338;2023-04-24T13:37:08;23.55;;;6.88;;
70008;SDS011;59542;37.950;-122.338;2023-04-24T13:39:34;30.73;;;8.15;;
70008;SDS011;59542;37.950;-122.338;2023-04-24T13:42:00;26.90;;;7.63;;
70008;SDS011;59542;37.950;-122.338;2023-04-24T13:44:26;26.63;;;8.05;;
70008;SDS011;59542;37.950;-122.338;2023-04-24T13:46:53;22.02;;;6.47;;
70008;SDS011;59542;37.950;-122.338;2023-04-24T13:49:22;28.30;;;7.88;;
70008;SDS011;59542;37.950;-122.338;2023-04-24T13:51:52;25.40;;;6.53;;
70008;SDS011;59542;37.950;-122.338;2023-04-24T13:54:19;25.02;;;7.78;;
70008;SDS011;59542;37.950;-122.338;2023-04-24T13:56:46;21.27;;;7.32;;
70008;SDS011;59542;37.950;-122.338;2023-04-24T13:59:12;23.73;;;6.97;;
70008;SDS011;59542;37.950;-122.338;2023-04-24T14:01:39;22.10;;;7.00;;
70008;SDS011;59542;37.950;-122.338;2023-04-24T14:04:05;22.83;;;6.60;;
70008;SDS011;59542;37.950;-122.338;2023-04-24T14:06:32;22.98;;;6.90;;
70008;SDS011;59542;37.950;-122.338;2023-04-24T14:08:58;23.42;;;7.30;;
70008;SDS011;59542;37.950;-122.338;2023-04-24T14:11:24;28.73;;;7.35;;
70008;SDS011;59542;37.950;-122.338;2023-04-24T14:13:52;27.15;;;7.32;;